sensor_id;sensor_type;location;lat;lon;timestamp;P1;durP1;ratioP1;P2;durP2;ratioP2
3549;SDS011;45572;48.804;8.330;2023-12-20T00:01:26;2.40;;;1.45;;
3549;SDS011;45572;48.804;8.330;2023-12-20T00:03:54;4.70;;;1.90;;
3549;SDS011;45572;48.804;8.330;2023-12-20T00:06:22;2.15;;;1.63;;
3549;SDS011;45572;48.804;8.330;2023-12-20T00:08:50;5.15;;;1.65;;
3549;SDS011;45572;48.804;8.330;2023-12-20T00:11:18;1.75;;;1.35;;
3549;SDS011;45572;48.804;8.330;2023-12-20T00:13:46;2.70;;;2.00;;
3549;SDS011;45572;48.804;8.330;2023-12-20T00:16:17;2.38;;;1.80;;
3549;SDS011;45572;48.804;8.330;2023-12-20T00:18:47;1.85;;;1.20;;
3549;SDS011;45572;48.804;8.330;2023-12-20T00:21:15;2.65;;;1.40;;
3549;SDS011;45572;48.804;8.330;2023-12-20T00:23:43;2.53;;;1.38;;
3549;SDS011;45572;48.804;8.330;2023-12-20T00:26:11;2.35;;;1.50;;
3549;SDS011;45572;48.804;8.330;2023-12-20T00:28:38;2.88;;;1.67;;
3549;SDS011;45572;48.804;8.330;2023-12-20T00:31:06;2.15;;;1.60;;
3549;SDS011;45572;48.804;8.330;2023-12-20T00:33:34;2.40;;;1.13;;
3549;SDS011;45572;48.804;8.330;2023-12-20T00:36:04;2.75;;;1.50;;
3549;SDS011;45572;48.804;8.330;2023-12-20T00:38:33;3.13;;;1.70;;
3549;SDS011;45572;48.804;8.330;2023-12-20T00:41:00;4.57;;;1.50;;
3549;SDS011;45572;48.804;8.330;2023-12-20T00:43:28;2.75;;;1.70;;
3549;SDS011;45572;48.804;8.330;2023-12-20T00:45:59;2.78;;;1.50;;
3549;SDS011;45572;48.804;8.330;2023-12-20T00:48:27;3.85;;;1.50;;
3549;SDS011;45572;48.804;8.330;2023-12-20T00:50:56;2.60;;;1.98;;
3549;SDS011;45572;48.804;8.330;2023-12-20T00:53:26;2.30;;;1.65;;
3549;SDS011;45572;48.804;8.330;2023-12-20T00:55:54;2.33;;;1.38;;
3549;SDS011;45572;48.804;8.330;2023-12-20T00:58:22;1.95;;;1.30;;
3549;SDS011;45572;48.804;8.330;2023-12-20T01:00:50;2.08;;;1.20;;
3549;SDS011;45572;48.804;8.330;2023-12-20T01:03:18;3.80;;;1.55;;
3549;SDS011;45572;48.804;8.330;2023-12-20T01:05:47;3.25;;;1.55;;
3549;SDS011;45572;48.804;8.330;2023-12-20T01:08:15;3.25;;;1.05;;
3549;SDS011;45572;48.804;8.330;2023-12-20T01:10:44;2.05;;;1.30;;
3549;SDS011;45572;48.804;8.330;2023-12-20T01:13:13;1.38;;;0.93;;
3549;SDS011;45572;48.804;8.330;2023-12-20T01:15:41;1.65;;;0.90;;
3549;SDS011;45572;48.804;8.330;2023-12-20T01:18:09;1.63;;;1.00;;
3549;SDS011;45572;48.804;8.330;2023-12-20T01:20:37;1.60;;;0.95;;
3549;SDS011;45572;48.804;8.330;2023-12-20T01:23:05;3.30;;;1.15;;
3549;SDS011;45572;48.804;8.330;2023-12-20T01:25:33;1.92;;;1.02;;
3549;SDS011;45572;48.804;8.330;2023-12-20T01:28:02;1.70;;;1.33;;
3549;SDS011;45572;48.804;8.330;2023-12-20T01:30:31;1.40;;;0.80;;
3549;SDS011;45572;48.804;8.330;2023-12-20T01:32:59;1.88;;;1.10;;
3549;SDS011;45572;48.804;8.330;2023-12-20T01:35:28;2.45;;;1.20;;
3549;SDS011;45572;48.804;8.330;2023-12-20T01:37:56;1.00;;;0.90;;
3549;SDS011;45572;48.804;8.330;2023-12-20T01:40:24;1.42;;;1.30;;
3549;SDS011;45572;48.804;8.330;2023-12-20T01:43:04;1.50;;;0.93;;
3549;SDS011;45572;48.804;8.330;2023-12-20T01:45:34;1.50;;;0.90;;
3549;SDS011;45572;48.804;8.330;2023-12-20T01:48:02;1.90;;;1.05;;
3549;SDS011;45572;48.804;8.330;2023-12-20T01:50:33;5.00;;;0.95;;
3549;SDS011;45572;48.804;8.330;2023-12-20T01:53:03;1.45;;;0.82;;
3549;SDS011;45572;48.804;8.330;2023-12-20T01:55:34;1.30;;;0.90;;
3549;SDS011;45572;48.804;8.330;2023-12-20T01:58:05;1.60;;;0.80;;
3549;SDS011;45572;48.804;8.330;2023-12-20T02:00:34;1.38;;;0.90;;
3549;SDS011;45572;48.804;8.330;2023-12-20T02:03:03;0.93;;;0.80;;
3549;SDS011;45572;48.804;8.330;2023-12-20T02:05:33;1.00;;;0.80;;
3549;SDS011;45572;48.804;8.330;2023-12-20T02:08:02;1.75;;;1.10;;
3549;SDS011;45572;48.804;8.330;2023-12-20T02:10:40;3.35;;;1.70;;
3549;SDS011;45572;48.804;8.330;2023-12-20T02:13:09;2.50;;;1.50;;
3549;SDS011;45572;48.804;8.330;2023-12-20T02:15:40;2.20;;;1.40;;
3549;SDS011;45572;48.804;8.330;2023-12-20T02:18:10;2.35;;;1.42;;
3549;SDS011;45572;48.804;8.330;2023-12-20T02:20:41;3.13;;;1.30;;
3549;SDS011;45572;48.804;8.330;2023-12-20T02:23:11;1.95;;;1.77;;
3549;SDS011;45572;48.804;8.330;2023-12-20T02:25:39;1.75;;;1.15;;
3549;SDS011;45572;48.804;8.330;2023-12-20T02:28:07;2.08;;;1.05;;
3549;SDS011;45572;48.804;8.330;2023-12-20T02:30:35;1.13;;;0.93;;
3549;SDS011;45572;48.804;8.330;2023-12-20T02:33:04;0.90;;;0.60;;
3549;SDS011;45572;48.804;8.330;2023-12-20T02:35:35;0.90;;;0.63;;
3549;SDS011;45572;48.804;8.330;2023-12-20T02:38:03;1.23;;;0.60;;
3549;SDS011;45572;48.804;8.330;2023-12-20T02:40:33;1.73;;;0.93;;
3549;SDS011;45572;48.804;8.330;2023-12-20T02:43:01;1.80;;;0.90;;
3549;SDS011;45572;48.804;8.330;2023-12-20T02:45:29;2.47;;;0.82;;
3549;SDS011;45572;48.804;8.330;2023-12-20T02:47:57;1.10;;;0.98;;
3549;SDS011;45572;48.804;8.330;2023-12-20T02:50:26;1.60;;;0.80;;
3549;SDS011;45572;48.804;8.330;2023-12-20T02:52:54;0.95;;;0.65;;
3549;SDS011;45572;48.804;8.330;2023-12-20T02:55:22;1.42;;;0.80;;
3549;SDS011;45572;48.804;8.330;2023-12-20T02:57:51;2.97;;;1.13;;
3549;SDS011;45572;48.804;8.330;2023-12-20T03:00:19;1.50;;;0.73;;
3549;SDS011;45572;48.804;8.330;2023-12-20T03:02:49;0.90;;;0.80;;
3549;SDS011;45572;48.804;8.330;2023-12-20T03:05:17;1.50;;;1.10;;
3549;SDS011;45572;48.804;8.330;2023-12-20T03:07:45;2.10;;;1.13;;
3549;SDS011;45572;48.804;8.330;2023-12-20T03:10:13;2.17;;;1.00;;
3549;SDS011;45572;48.804;8.330;2023-12-20T03:12:53;1.35;;;0.77;;
3549;SDS011;45572;48.804;8.330;2023-12-20T03:15:21;1.13;;;0.73;;
3549;SDS011;45572;48.804;8.330;2023-12-20T03:17:50;0.80;;;0.60;;
3549;SDS011;45572;48.804;8.330;2023-12-20T03:20:18;1.30;;;0.85;;
3549;SDS011;45572;48.804;8.330;2023-12-20T03:22:46;0.95;;;0.68;;
3549;SDS011;45572;48.804;8.330;2023-12-20T03:25:14;1.10;;;0.60;;
3549;SDS011;45572;48.804;8.330;2023-12-20T03:27:42;1.15;;;0.80;;
3549;SDS011;45572;48.804;8.330;2023-12-20T03:30:12;1.80;;;1.05;;
3549;SDS011;45572;48.804;8.330;2023-12-20T03:32:40;1.00;;;0.65;;
3549;SDS011;45572;48.804;8.330;2023-12-20T03:35:09;1.05;;;0.63;;
3549;SDS011;45572;48.804;8.330;2023-12-20T03:37:37;0.90;;;0.50;;
3549;SDS011;45572;48.804;8.330;2023-12-20T03:40:06;1.50;;;0.90;;
3549;SDS011;45572;48.804;8.330;2023-12-20T03:42:34;1.60;;;0.90;;
3549;SDS011;45572;48.804;8.330;2023-12-20T03:45:02;1.33;;;0.70;;
3549;SDS011;45572;48.804;8.330;2023-12-20T03:47:32;1.45;;;0.80;;
3549;SDS011;45572;48.804;8.330;2023-12-20T03:50:00;1.23;;;0.80;;
3549;SDS011;45572;48.804;8.330;2023-12-20T03:52:28;1.30;;;0.60;;
3549;SDS011;45572;48.804;8.330;2023-12-20T03:54:56;1.15;;;0.60;;
3549;SDS011;45572;48.804;8.330;2023-12-20T03:57:24;2.33;;;0.90;;
3549;SDS011;45572;48.804;8.330;2023-12-20T03:59:52;1.40;;;0.80;;
3549;SDS011;45572;48.804;8.330;2023-12-20T04:02:20;1.42;;;0.93;;
3549;SDS011;45572;48.804;8.330;2023-12-20T04:04:50;0.90;;;0.73;;
3549;SDS011;45572;48.804;8.330;2023-12-20T04:07:19;1.75;;;0.75;;
3549;SDS011;45572;48.804;8.330;2023-12-20T04:09:47;0.70;;;0.50;;
3549;SDS011;45572;48.804;8.330;2023-12-20T04:12:16;1.73;;;0.60;;
3549;SDS011;45572;48.804;8.330;2023-12-20T04:14:44;2.10;;;0.73;;
3549;SDS011;45572;48.804;8.330;2023-12-20T04:17:12;1.13;;;0.70;;
3549;SDS011;45572;48.804;8.330;2023-12-20T04:19:42;2.05;;;0.70;;
3549;SDS011;45572;48.804;8.330;2023-12-20T04:22:11;1.70;;;0.88;;
3549;SDS011;45572;48.804;8.330;2023-12-20T04:24:39;1.45;;;0.90;;
3549;SDS011;45572;48.804;8.330;2023-12-20T04:27:08;2.35;;;1.17;;
3549;SDS011;45572;48.804;8.330;2023-12-20T04:29:36;1.52;;;0.75;;
3549;SDS011;45572;48.804;8.330;2023-12-20T04:32:05;0.80;;;0.60;;
3549;SDS011;45572;48.804;8.330;2023-12-20T04:34:33;1.42;;;0.93;;
3549;SDS011;45572;48.804;8.330;2023-12-20T04:37:01;1.00;;;0.90;;
3549;SDS011;45572;48.804;8.330;2023-12-20T04:39:31;1.35;;;1.00;;
3549;SDS011;45572;48.804;8.330;2023-12-20T04:41:59;1.58;;;0.70;;
3549;SDS011;45572;48.804;8.330;2023-12-20T04:44:27;1.35;;;1.02;;
3549;SDS011;45572;48.804;8.330;2023-12-20T04:46:55;1.15;;;0.75;;
3549;SDS011;45572;48.804;8.330;2023-12-20T04:49:23;2.15;;;1.48;;
3549;SDS011;45572;48.804;8.330;2023-12-20T04:51:52;2.13;;;1.20;;
3549;SDS011;45572;48.804;8.330;2023-12-20T04:54:20;1.48;;;1.20;;
3549;SDS011;45572;48.804;8.330;2023-12-20T04:56:49;2.40;;;1.58;;
3549;SDS011;45572;48.804;8.330;2023-12-20T04:59:17;1.52;;;1.42;;
3549;SDS011;45572;48.804;8.330;2023-12-20T05:01:45;2.83;;;1.33;;
3549;SDS011;45572;48.804;8.330;2023-12-20T05:04:13;2.00;;;1.48;;
3549;SDS011;45572;48.804;8.330;2023-12-20T05:06:42;3.55;;;1.33;;
3549;SDS011;45572;48.804;8.330;2023-12-20T05:09:10;2.10;;;1.42;;
3549;SDS011;45572;48.804;8.330;2023-12-20T05:11:38;2.55;;;1.20;;
3549;SDS011;45572;48.804;8.330;2023-12-20T05:14:07;3.75;;;1.67;;
3549;SDS011;45572;48.804;8.330;2023-12-20T05:16:35;4.07;;;1.60;;
3549;SDS011;45572;48.804;8.330;2023-12-20T05:19:03;4.65;;;2.03;;
3549;SDS011;45572;48.804;8.330;2023-12-20T05:21:33;2.50;;;1.52;;
3549;SDS011;45572;48.804;8.330;2023-12-20T05:24:02;6.78;;;2.08;;
3549;SDS011;45572;48.804;8.330;2023-12-20T05:26:30;2.10;;;1.50;;
3549;SDS011;45572;48.804;8.330;2023-12-20T05:28:58;2.53;;;1.83;;
3549;SDS011;45572;48.804;8.330;2023-12-20T05:31:27;2.25;;;1.50;;
3549;SDS011;45572;48.804;8.330;2023-12-20T05:33:55;3.80;;;1.50;;
3549;SDS011;45572;48.804;8.330;2023-12-20T05:36:24;2.72;;;1.58;;
3549;SDS011;45572;48.804;8.330;2023-12-20T05:38:52;4.15;;;2.50;;
3549;SDS011;45572;48.804;8.330;2023-12-20T05:41:19;2.65;;;2.03;;
3549;SDS011;45572;48.804;8.330;2023-12-20T05:43:48;3.22;;;2.20;;
3549;SDS011;45572;48.804;8.330;2023-12-20T05:46:16;2.88;;;2.05;;
3549;SDS011;45572;48.804;8.330;2023-12-20T05:48:45;3.83;;;2.13;;
3549;SDS011;45572;48.804;8.330;2023-12-20T05:51:13;3.85;;;2.10;;
3549;SDS011;45572;48.804;8.330;2023-12-20T05:53:41;2.63;;;1.50;;
3549;SDS011;45572;48.804;8.330;2023-12-20T05:56:10;2.17;;;1.48;;
3549;SDS011;45572;48.804;8.330;2023-12-20T05:58:38;3.60;;;1.85;;
3549;SDS011;45572;48.804;8.330;2023-12-20T06:01:06;2.33;;;1.45;;
3549;SDS011;45572;48.804;8.330;2023-12-20T06:03:35;1.63;;;1.40;;
3549;SDS011;45572;48.804;8.330;2023-12-20T06:06:07;5.72;;;2.22;;
3549;SDS011;45572;48.804;8.330;2023-12-20T06:08:42;3.53;;;2.25;;
3549;SDS011;45572;48.804;8.330;2023-12-20T06:11:10;4.35;;;2.17;;
3549;SDS011;45572;48.804;8.330;2023-12-20T06:13:39;4.50;;;2.30;;
3549;SDS011;45572;48.804;8.330;2023-12-20T06:16:07;3.65;;;2.60;;
3549;SDS011;45572;48.804;8.330;2023-12-20T06:18:36;2.78;;;2.00;;
3549;SDS011;45572;48.804;8.330;2023-12-20T06:21:04;4.55;;;3.92;;
3549;SDS011;45572;48.804;8.330;2023-12-20T06:23:35;3.00;;;2.05;;
3549;SDS011;45572;48.804;8.330;2023-12-20T06:26:03;2.88;;;1.83;;
3549;SDS011;45572;48.804;8.330;2023-12-20T06:28:34;4.78;;;2.25;;
3549;SDS011;45572;48.804;8.330;2023-12-20T06:31:06;4.30;;;2.35;;
3549;SDS011;45572;48.804;8.330;2023-12-20T06:33:34;3.78;;;2.00;;
3549;SDS011;45572;48.804;8.330;2023-12-20T06:36:02;3.00;;;2.38;;
3549;SDS011;45572;48.804;8.330;2023-12-20T06:38:30;3.85;;;2.75;;
3549;SDS011;45572;48.804;8.330;2023-12-20T06:41:00;6.07;;;2.63;;
3549;SDS011;45572;48.804;8.330;2023-12-20T06:43:28;6.88;;;2.90;;
3549;SDS011;45572;48.804;8.330;2023-12-20T06:46:14;3.08;;;2.40;;
3549;SDS011;45572;48.804;8.330;2023-12-20T06:48:43;5.50;;;3.33;;
3549;SDS011;45572;48.804;8.330;2023-12-20T06:51:12;4.75;;;3.10;;
3549;SDS011;45572;48.804;8.330;2023-12-20T06:53:42;6.45;;;2.67;;
3549;SDS011;45572;48.804;8.330;2023-12-20T06:56:11;5.65;;;3.60;;
3549;SDS011;45572;48.804;8.330;2023-12-20T06:58:44;6.03;;;3.67;;
3549;SDS011;45572;48.804;8.330;2023-12-20T07:01:12;8.80;;;4.10;;
3549;SDS011;45572;48.804;8.330;2023-12-20T07:03:40;5.38;;;3.13;;
3549;SDS011;45572;48.804;8.330;2023-12-20T07:06:09;5.90;;;3.72;;
3549;SDS011;45572;48.804;8.330;2023-12-20T07:08:40;6.72;;;3.83;;
3549;SDS011;45572;48.804;8.330;2023-12-20T07:11:08;6.25;;;3.08;;
3549;SDS011;45572;48.804;8.330;2023-12-20T07:13:38;7.50;;;3.75;;
3549;SDS011;45572;48.804;8.330;2023-12-20T07:16:06;8.80;;;3.83;;
3549;SDS011;45572;48.804;8.330;2023-12-20T07:18:34;5.30;;;3.55;;
3549;SDS011;45572;48.804;8.330;2023-12-20T07:21:02;5.80;;;3.80;;
3549;SDS011;45572;48.804;8.330;2023-12-20T07:23:29;6.97;;;3.97;;
3549;SDS011;45572;48.804;8.330;2023-12-20T07:25:58;4.53;;;3.03;;
3549;SDS011;45572;48.804;8.330;2023-12-20T07:28:26;5.45;;;4.88;;
3549;SDS011;45572;48.804;8.330;2023-12-20T07:30:55;4.78;;;2.92;;
3549;SDS011;45572;48.804;8.330;2023-12-20T07:33:23;4.13;;;3.50;;
3549;SDS011;45572;48.804;8.330;2023-12-20T07:35:51;3.92;;;3.20;;
3549;SDS011;45572;48.804;8.330;2023-12-20T07:38:19;4.15;;;3.05;;
3549;SDS011;45572;48.804;8.330;2023-12-20T07:40:47;4.07;;;3.28;;
3549;SDS011;45572;48.804;8.330;2023-12-20T07:43:15;6.00;;;3.42;;
3549;SDS011;45572;48.804;8.330;2023-12-20T07:45:44;5.40;;;3.30;;
3549;SDS011;45572;48.804;8.330;2023-12-20T07:48:13;5.97;;;3.40;;
3549;SDS011;45572;48.804;8.330;2023-12-20T07:50:41;9.35;;;3.60;;
3549;SDS011;45572;48.804;8.330;2023-12-20T07:53:09;5.00;;;3.33;;
3549;SDS011;45572;48.804;8.330;2023-12-20T07:55:37;8.45;;;3.53;;
3549;SDS011;45572;48.804;8.330;2023-12-20T07:58:06;6.80;;;3.70;;
3549;SDS011;45572;48.804;8.330;2023-12-20T08:00:35;5.53;;;3.60;;
3549;SDS011;45572;48.804;8.330;2023-12-20T08:03:03;7.72;;;3.97;;
3549;SDS011;45572;48.804;8.330;2023-12-20T08:05:32;10.80;;;3.70;;
3549;SDS011;45572;48.804;8.330;2023-12-20T08:08:00;6.53;;;3.97;;
3549;SDS011;45572;48.804;8.330;2023-12-20T08:10:28;5.00;;;2.92;;
3549;SDS011;45572;48.804;8.330;2023-12-20T08:12:57;4.70;;;3.13;;
3549;SDS011;45572;48.804;8.330;2023-12-20T08:15:25;5.40;;;3.28;;
3549;SDS011;45572;48.804;8.330;2023-12-20T08:17:53;9.52;;;2.85;;
3549;SDS011;45572;48.804;8.330;2023-12-20T08:20:21;3.95;;;2.75;;
3549;SDS011;45572;48.804;8.330;2023-12-20T08:23:03;4.13;;;2.63;;
3549;SDS011;45572;48.804;8.330;2023-12-20T08:25:34;5.72;;;2.78;;
3549;SDS011;45572;48.804;8.330;2023-12-20T08:28:02;5.35;;;2.50;;
3549;SDS011;45572;48.804;8.330;2023-12-20T08:30:31;5.90;;;2.72;;
3549;SDS011;45572;48.804;8.330;2023-12-20T08:32:59;7.93;;;2.90;;
3549;SDS011;45572;48.804;8.330;2023-12-20T08:35:28;8.70;;;4.07;;
3549;SDS011;45572;48.804;8.330;2023-12-20T08:37:56;4.07;;;2.08;;
3549;SDS011;45572;48.804;8.330;2023-12-20T08:40:25;3.20;;;2.15;;
3549;SDS011;45572;48.804;8.330;2023-12-20T08:42:54;7.63;;;2.60;;
3549;SDS011;45572;48.804;8.330;2023-12-20T08:45:22;3.92;;;2.40;;
3549;SDS011;45572;48.804;8.330;2023-12-20T08:47:51;5.93;;;2.63;;
3549;SDS011;45572;48.804;8.330;2023-12-20T08:50:19;5.50;;;3.38;;
3549;SDS011;45572;48.804;8.330;2023-12-20T08:52:47;6.25;;;2.95;;
3549;SDS011;45572;48.804;8.330;2023-12-20T08:55:15;2.58;;;1.90;;
3549;SDS011;45572;48.804;8.330;2023-12-20T08:57:46;5.05;;;2.13;;
3549;SDS011;45572;48.804;8.330;2023-12-20T09:00:14;7.03;;;2.20;;
3549;SDS011;45572;48.804;8.330;2023-12-20T09:02:43;6.40;;;1.88;;
3549;SDS011;45572;48.804;8.330;2023-12-20T09:05:11;4.10;;;1.48;;
3549;SDS011;45572;48.804;8.330;2023-12-20T09:07:39;5.72;;;1.52;;
3549;SDS011;45572;48.804;8.330;2023-12-20T09:10:07;3.70;;;1.85;;
3549;SDS011;45572;48.804;8.330;2023-12-20T09:12:35;3.70;;;2.10;;
3549;SDS011;45572;48.804;8.330;2023-12-20T09:15:08;4.85;;;2.15;;
3549;SDS011;45572;48.804;8.330;2023-12-20T09:17:36;4.63;;;1.63;;
3549;SDS011;45572;48.804;8.330;2023-12-20T09:20:04;3.35;;;1.67;;
3549;SDS011;45572;48.804;8.330;2023-12-20T09:22:35;2.20;;;1.58;;
3549;SDS011;45572;48.804;8.330;2023-12-20T09:25:04;9.65;;;2.75;;
3549;SDS011;45572;48.804;8.330;2023-12-20T09:27:33;9.32;;;2.40;;
3549;SDS011;45572;48.804;8.330;2023-12-20T09:30:01;2.60;;;2.17;;
3549;SDS011;45572;48.804;8.330;2023-12-20T09:32:33;5.60;;;1.95;;
3549;SDS011;45572;48.804;8.330;2023-12-20T09:35:01;2.60;;;2.20;;
3549;SDS011;45572;48.804;8.330;2023-12-20T09:37:31;6.13;;;2.42;;
3549;SDS011;45572;48.804;8.330;2023-12-20T09:40:00;5.00;;;2.28;;
3549;SDS011;45572;48.804;8.330;2023-12-20T09:42:29;4.57;;;1.85;;
3549;SDS011;45572;48.804;8.330;2023-12-20T09:45:06;9.30;;;3.70;;
3549;SDS011;45572;48.804;8.330;2023-12-20T09:47:38;5.25;;;2.63;;
3549;SDS011;45572;48.804;8.330;2023-12-20T09:50:06;4.93;;;2.97;;
3549;SDS011;45572;48.804;8.330;2023-12-20T09:52:35;3.20;;;1.95;;
3549;SDS011;45572;48.804;8.330;2023-12-20T09:55:04;2.65;;;1.75;;
3549;SDS011;45572;48.804;8.330;2023-12-20T09:57:34;3.65;;;2.08;;
3549;SDS011;45572;48.804;8.330;2023-12-20T10:00:02;7.78;;;1.85;;
3549;SDS011;45572;48.804;8.330;2023-12-20T11:38:55;5.77;;;1.30;;
3549;SDS011;45572;48.804;8.330;2023-12-20T11:41:25;3.03;;;1.63;;
3549;SDS011;45572;48.804;8.330;2023-12-20T11:43:53;3.95;;;1.23;;
3549;SDS011;45572;48.804;8.330;2023-12-20T11:46:21;3.13;;;1.10;;
3549;SDS011;45572;48.804;8.330;2023-12-20T11:48:49;3.50;;;1.67;;
3549;SDS011;45572;48.804;8.330;2023-12-20T11:51:18;4.50;;;1.42;;
3549;SDS011;45572;48.804;8.330;2023-12-20T11:53:46;3.80;;;1.23;;
3549;SDS011;45572;48.804;8.330;2023-12-20T11:56:20;2.00;;;1.25;;
3549;SDS011;45572;48.804;8.330;2023-12-20T11:58:48;3.42;;;1.20;;
3549;SDS011;45572;48.804;8.330;2023-12-20T12:01:17;2.30;;;1.48;;
3549;SDS011;45572;48.804;8.330;2023-12-20T12:03:47;1.80;;;1.20;;
3549;SDS011;45572;48.804;8.330;2023-12-20T12:06:15;5.38;;;1.98;;
3549;SDS011;45572;48.804;8.330;2023-12-20T12:08:44;10.25;;;1.85;;
3549;SDS011;45572;48.804;8.330;2023-12-20T12:11:12;7.53;;;1.20;;
3549;SDS011;45572;48.804;8.330;2023-12-20T12:13:41;5.05;;;1.75;;
3549;SDS011;45572;48.804;8.330;2023-12-20T12:16:09;5.00;;;1.55;;
3549;SDS011;45572;48.804;8.330;2023-12-20T12:18:38;6.25;;;2.40;;
3549;SDS011;45572;48.804;8.330;2023-12-20T12:21:08;5.13;;;1.38;;
3549;SDS011;45572;48.804;8.330;2023-12-20T12:23:44;8.02;;;2.05;;
3549;SDS011;45572;48.804;8.330;2023-12-20T12:26:12;4.78;;;1.90;;
3549;SDS011;45572;48.804;8.330;2023-12-20T12:28:41;2.88;;;1.58;;
3549;SDS011;45572;48.804;8.330;2023-12-20T12:31:13;9.60;;;1.77;;
3549;SDS011;45572;48.804;8.330;2023-12-20T12:33:42;2.90;;;1.23;;
3549;SDS011;45572;48.804;8.330;2023-12-20T12:36:12;5.53;;;1.52;;
3549;SDS011;45572;48.804;8.330;2023-12-20T12:38:42;2.53;;;1.88;;
3549;SDS011;45572;48.804;8.330;2023-12-20T12:41:12;4.60;;;1.55;;
3549;SDS011;45572;48.804;8.330;2023-12-20T12:43:43;8.85;;;1.52;;
3549;SDS011;45572;48.804;8.330;2023-12-20T12:46:11;4.22;;;1.23;;
3549;SDS011;45572;48.804;8.330;2023-12-20T12:48:39;5.13;;;1.50;;
3549;SDS011;45572;48.804;8.330;2023-12-20T12:51:11;6.85;;;2.45;;
3549;SDS011;45572;48.804;8.330;2023-12-20T12:53:40;8.10;;;1.38;;
3549;SDS011;45572;48.804;8.330;2023-12-20T12:56:08;3.35;;;1.48;;
3549;SDS011;45572;48.804;8.330;2023-12-20T12:58:36;3.35;;;1.55;;
3549;SDS011;45572;48.804;8.330;2023-12-20T13:01:05;2.85;;;1.42;;
3549;SDS011;45572;48.804;8.330;2023-12-20T13:03:34;5.40;;;1.45;;
3549;SDS011;45572;48.804;8.330;2023-12-20T13:06:03;3.72;;;1.83;;
3549;SDS011;45572;48.804;8.330;2023-12-20T13:08:32;4.95;;;1.60;;
3549;SDS011;45572;48.804;8.330;2023-12-20T13:11:00;6.22;;;1.50;;
3549;SDS011;45572;48.804;8.330;2023-12-20T13:13:30;9.43;;;1.92;;
3549;SDS011;45572;48.804;8.330;2023-12-20T13:15:58;7.07;;;1.55;;
3549;SDS011;45572;48.804;8.330;2023-12-20T13:18:28;3.45;;;1.80;;
3549;SDS011;45572;48.804;8.330;2023-12-20T13:20:56;7.22;;;1.40;;
3549;SDS011;45572;48.804;8.330;2023-12-20T13:23:24;7.38;;;1.40;;
3549;SDS011;45572;48.804;8.330;2023-12-20T13:25:52;2.55;;;1.45;;
3549;SDS011;45572;48.804;8.330;2023-12-20T13:28:20;4.75;;;1.45;;
3549;SDS011;45572;48.804;8.330;2023-12-20T13:30:48;5.97;;;2.03;;
3549;SDS011;45572;48.804;8.330;2023-12-20T13:33:16;6.03;;;1.25;;
3549;SDS011;45572;48.804;8.330;2023-12-20T13:35:46;2.45;;;1.75;;
3549;SDS011;45572;48.804;8.330;2023-12-20T13:38:14;5.00;;;1.90;;
3549;SDS011;45572;48.804;8.330;2023-12-20T13:40:42;4.30;;;1.90;;
3549;SDS011;45572;48.804;8.330;2023-12-20T13:43:10;3.78;;;1.35;;
3549;SDS011;45572;48.804;8.330;2023-12-20T13:45:39;5.18;;;1.73;;
3549;SDS011;45572;48.804;8.330;2023-12-20T13:48:07;7.13;;;1.48;;
3549;SDS011;45572;48.804;8.330;2023-12-20T13:50:35;5.50;;;2.10;;
3549;SDS011;45572;48.804;8.330;2023-12-20T13:53:05;4.15;;;1.50;;
3549;SDS011;45572;48.804;8.330;2023-12-20T13:55:33;3.05;;;1.80;;
3549;SDS011;45572;48.804;8.330;2023-12-20T13:58:01;5.18;;;1.65;;
3549;SDS011;45572;48.804;8.330;2023-12-20T14:00:32;3.53;;;1.90;;
3549;SDS011;45572;48.804;8.330;2023-12-20T14:03:03;8.32;;;2.40;;
3549;SDS011;45572;48.804;8.330;2023-12-20T14:05:31;2.85;;;1.65;;
3549;SDS011;45572;48.804;8.330;2023-12-20T14:07:59;5.40;;;2.22;;
3549;SDS011;45572;48.804;8.330;2023-12-20T14:10:29;5.40;;;1.70;;
3549;SDS011;45572;48.804;8.330;2023-12-20T14:12:57;12.60;;;2.58;;
3549;SDS011;45572;48.804;8.330;2023-12-20T14:15:25;2.28;;;1.40;;
3549;SDS011;45572;48.804;8.330;2023-12-20T14:17:53;7.25;;;1.83;;
3549;SDS011;45572;48.804;8.330;2023-12-20T14:20:22;8.13;;;2.60;;
3549;SDS011;45572;48.804;8.330;2023-12-20T14:22:50;7.75;;;2.88;;
3549;SDS011;45572;48.804;8.330;2023-12-20T14:25:18;16.17;;;2.58;;
3549;SDS011;45572;48.804;8.330;2023-12-20T14:27:50;4.75;;;2.20;;
3549;SDS011;45572;48.804;8.330;2023-12-20T14:30:18;3.40;;;1.75;;
3549;SDS011;45572;48.804;8.330;2023-12-20T14:32:46;3.45;;;1.92;;
3549;SDS011;45572;48.804;8.330;2023-12-20T14:35:14;7.18;;;2.22;;
3549;SDS011;45572;48.804;8.330;2023-12-20T14:37:42;5.32;;;3.08;;
3549;SDS011;45572;48.804;8.330;2023-12-20T14:40:11;6.95;;;1.95;;
3549;SDS011;45572;48.804;8.330;2023-12-20T14:42:42;6.78;;;2.55;;
3549;SDS011;45572;48.804;8.330;2023-12-20T14:45:12;2.85;;;1.70;;
3549;SDS011;45572;48.804;8.330;2023-12-20T14:47:42;5.40;;;2.17;;
3549;SDS011;45572;48.804;8.330;2023-12-20T14:50:11;2.67;;;1.40;;
3549;SDS011;45572;48.804;8.330;2023-12-20T14:52:45;10.73;;;1.60;;
3549;SDS011;45572;48.804;8.330;2023-12-20T14:55:13;8.05;;;1.85;;
3549;SDS011;45572;48.804;8.330;2023-12-20T14:57:41;6.88;;;1.85;;
3549;SDS011;45572;48.804;8.330;2023-12-20T15:00:10;2.80;;;2.08;;
3549;SDS011;45572;48.804;8.330;2023-12-20T15:02:46;4.43;;;2.35;;
3549;SDS011;45572;48.804;8.330;2023-12-20T15:05:14;2.75;;;1.83;;
3549;SDS011;45572;48.804;8.330;2023-12-20T15:07:43;3.95;;;1.65;;
3549;SDS011;45572;48.804;8.330;2023-12-20T15:10:13;5.15;;;2.88;;
3549;SDS011;45572;48.804;8.330;2023-12-20T15:12:43;5.80;;;1.85;;
3549;SDS011;45572;48.804;8.330;2023-12-20T15:15:11;3.75;;;2.20;;
3549;SDS011;45572;48.804;8.330;2023-12-20T15:17:39;4.90;;;1.70;;
3549;SDS011;45572;48.804;8.330;2023-12-20T15:20:09;5.53;;;1.55;;
3549;SDS011;45572;48.804;8.330;2023-12-20T15:22:37;8.15;;;1.90;;
3549;SDS011;45572;48.804;8.330;2023-12-20T15:25:07;5.63;;;2.05;;
3549;SDS011;45572;48.804;8.330;2023-12-20T15:27:35;5.80;;;3.10;;
3549;SDS011;45572;48.804;8.330;2023-12-20T15:30:04;7.95;;;1.88;;
3549;SDS011;45572;48.804;8.330;2023-12-20T15:32:35;4.32;;;2.13;;
3549;SDS011;45572;48.804;8.330;2023-12-20T15:35:04;5.80;;;1.55;;
3549;SDS011;45572;48.804;8.330;2023-12-20T15:37:35;14.57;;;3.45;;
3549;SDS011;45572;48.804;8.330;2023-12-20T15:40:03;4.00;;;2.20;;
3549;SDS011;45572;48.804;8.330;2023-12-20T15:42:32;4.72;;;2.65;;
3549;SDS011;45572;48.804;8.330;2023-12-20T15:45:03;2.35;;;1.83;;
3549;SDS011;45572;48.804;8.330;2023-12-20T15:47:31;10.05;;;3.80;;
3549;SDS011;45572;48.804;8.330;2023-12-20T15:49:59;9.27;;;1.48;;
3549;SDS011;45572;48.804;8.330;2023-12-20T15:52:28;9.70;;;2.60;;
3549;SDS011;45572;48.804;8.330;2023-12-20T15:54:57;4.20;;;2.33;;
3549;SDS011;45572;48.804;8.330;2023-12-20T15:57:26;5.07;;;1.95;;
3549;SDS011;45572;48.804;8.330;2023-12-20T16:00:11;9.98;;;2.05;;
3549;SDS011;45572;48.804;8.330;2023-12-20T16:02:39;6.93;;;2.40;;
3549;SDS011;45572;48.804;8.330;2023-12-20T16:05:07;4.47;;;1.90;;
3549;SDS011;45572;48.804;8.330;2023-12-20T16:07:35;4.95;;;1.88;;
3549;SDS011;45572;48.804;8.330;2023-12-20T16:10:05;6.07;;;2.08;;
3549;SDS011;45572;48.804;8.330;2023-12-20T16:12:34;4.45;;;1.98;;
3549;SDS011;45572;48.804;8.330;2023-12-20T16:15:02;7.43;;;2.33;;
3549;SDS011;45572;48.804;8.330;2023-12-20T16:17:30;5.10;;;1.85;;
3549;SDS011;45572;48.804;8.330;2023-12-20T16:20:00;4.10;;;1.60;;
3549;SDS011;45572;48.804;8.330;2023-12-20T16:22:28;11.25;;;1.35;;
3549;SDS011;45572;48.804;8.330;2023-12-20T16:24:56;5.78;;;1.23;;
3549;SDS011;45572;48.804;8.330;2023-12-20T16:27:26;6.35;;;1.80;;
3549;SDS011;45572;48.804;8.330;2023-12-20T16:29:54;3.90;;;1.67;;
3549;SDS011;45572;48.804;8.330;2023-12-20T16:32:21;4.43;;;1.85;;
3549;SDS011;45572;48.804;8.330;2023-12-20T16:34:49;4.22;;;2.05;;
3549;SDS011;45572;48.804;8.330;2023-12-20T16:37:19;9.23;;;1.90;;
3549;SDS011;45572;48.804;8.330;2023-12-20T16:39:47;4.72;;;1.65;;
3549;SDS011;45572;48.804;8.330;2023-12-20T16:42:15;8.32;;;1.85;;
3549;SDS011;45572;48.804;8.330;2023-12-20T16:44:44;3.83;;;1.73;;
3549;SDS011;45572;48.804;8.330;2023-12-20T16:47:12;2.15;;;1.20;;